Time;durP1;ratioP1;P1;durP2;ratioP2;P2;SDS_P1;SDS_P2;PMS_P1;PMS_P2;Temp;Humidity;BMP_temperature;BMP_pressure;BME280_temperature;BME280_humidity;BME280_pressure;Samples;Min_cycle;Max_cycle;Signal;HPM_P1;HPM_P2
2022/03/11 00:00:48;;;;;;;16.03;9.70;;;;;;;10.10;36.22;101847.13;5140843;28;20549;-48
2022/03/11 00:03:22;;;;;;;16.42;10.02;;;;;;;10.08;36.26;101857.81;5134974;28;20414;-50
2022/03/11 00:05:54;;;;;;;14.65;9.70;;;;;;;10.02;36.47;101857.47;5141166;28;20477;-52
2022/03/11 00:08:27;;;;;;;15.05;9.18;;;;;;;9.92;36.67;101860.81;5137098;28;20501;-47
2022/03/11 00:10:59;;;;;;;16.52;10.45;;;;;;;9.79;36.61;101854.00;5132907;28;20464;-54
2022/03/11 00:13:32;;;;;;;14.47;9.90;;;;;;;9.79;36.62;101859.28;5147143;28;20576;-51
2022/03/11 00:16:06;;;;;;;17.40;10.73;;;;;;;9.48;36.99;101816.81;5149245;28;20434;-50
2022/03/11 00:18:41;;;;;;;15.18;10.20;;;;;;;9.62;36.97;101842.94;5126965;28;20422;-51
2022/03/11 00:21:14;;;;;;;14.95;9.32;;;;;;;9.58;37.08;101848.59;5138547;28;20432;-48
2022/03/11 00:23:46;;;;;;;16.08;10.70;;;;;;;9.53;37.07;101845.44;5139412;28;20414;-48
2022/03/11 00:26:19;;;;;;;15.85;10.55;;;;;;;9.48;37.27;101843.19;5147745;28;20433;-48
2022/03/11 00:28:51;;;;;;;21.00;11.02;;;;;;;9.39;37.52;101839.44;5140932;28;20824;-51
2022/03/11 00:31:24;;;;;;;15.50;10.30;;;;;;;9.36;37.51;101833.56;5142274;28;20534;-49
2022/03/11 00:33:59;;;;;;;14.50;9.73;;;;;;;9.21;37.36;101831.13;5139599;28;20419;-48
2022/03/11 00:36:32;;;;;;;16.08;10.23;;;;;;;9.24;37.64;101836.19;5138499;28;20441;-50
2022/03/11 00:39:04;;;;;;;15.45;11.10;;;;;;;8.99;37.88;101795.03;5133028;28;20451;-51
2022/03/11 00:41:37;;;;;;;13.55;9.23;;;;;;;9.23;37.68;101833.66;5132793;28;20510;-48
2022/03/11 00:44:10;;;;;;;14.77;9.75;;;;;;;9.21;37.56;101849.59;5133924;28;20413;-51
2022/03/11 00:46:42;;;;;;;17.95;10.57;;;;;;;9.16;37.87;101833.28;5144515;28;20564;-52
2022/03/11 00:49:16;;;;;;;12.93;9.48;;;;;;;9.16;38.06;101833.28;5142085;28;20442;-49
2022/03/11 00:51:50;;;;;;;17.63;9.65;;;;;;;9.14;38.02;101829.94;5143277;28;20730;-59
2022/03/11 00:54:22;;;;;;;13.25;9.45;;;;;;;9.19;38.08;101833.03;5140371;28;20426;-49
2022/03/11 00:56:55;;;;;;;16.42;9.50;;;;;;;9.12;38.26;101816.03;5141107;28;20474;-48
2022/03/11 00:59:27;;;;;;;15.25;9.23;;;;;;;9.23;38.25;101831.03;5147745;28;20562;-49
2022/03/11 01:02:00;;;;;;;14.50;10.20;;;;;;;9.22;38.28;101821.44;5133283;28;20544;-50
2022/03/11 01:04:34;;;;;;;15.52;10.23;;;;;;;8.94;38.28;101780.53;5144415;28;20433;-52
2022/03/11 01:07:07;;;;;;;14.93;9.85;;;;;;;9.19;38.39;101813.75;5141101;28;20814;-50
2022/03/11 01:09:39;;;;;;;15.35;10.57;;;;;;;9.21;38.51;101810.06;5144219;28;20501;-48
2022/03/11 01:12:12;;;;;;;14.82;11.07;;;;;;;9.19;38.26;101798.78;5137489;28;20524;-48
2022/03/11 01:14:44;;;;;;;15.27;11.27;;;;;;;9.15;38.49;101813.16;5130290;28;20466;-47
2022/03/11 01:17:17;;;;;;;17.00;11.00;;;;;;;9.08;38.61;101798.78;5137796;28;20418;-49
2022/03/11 01:19:51;;;;;;;13.40;9.30;;;;;;;9.09;38.53;101797.81;5144461;28;20412;-52
2022/03/11 01:22:23;;;;;;;15.07;10.02;;;;;;;9.11;38.63;101802.97;5145932;28;20878;-49
2022/03/11 01:24:56;;;;;;;19.10;10.60;;;;;;;9.09;38.93;101805.72;5137725;28;20429;-52
2022/03/11 01:27:28;;;;;;;16.63;10.10;;;;;;;9.08;38.64;101797.94;5139778;28;20428;-48
2022/03/11 01:30:01;;;;;;;16.67;10.32;;;;;;;9.04;38.74;101796.47;5132279;28;20528;-52
2022/03/11 01:32:59;;;;;;;18.67;10.23;;;;;;;9.02;39.01;101783.44;5142617;28;20492;-50
2022/03/11 01:35:33;;;;;;;16.45;9.55;;;;;;;8.68;39.15;101735.09;5166945;28;20610;-50
2022/03/11 01:38:05;;;;;;;17.38;10.80;;;;;;;8.97;39.19;101780.28;5181957;28;20438;-48
2022/03/11 01:40:38;;;;;;;18.15;11.50;;;;;;;8.96;39.19;101773.34;5187457;28;20514;-49
2022/03/11 01:43:18;;;;;;;16.38;10.65;;;;;;;8.92;39.27;101763.97;5187048;28;20509;-50
2022/03/11 01:45:50;;;;;;;17.20;10.43;;;;;;;8.94;39.24;101772.63;5186791;28;20493;-48
2022/03/11 01:48:23;;;;;;;20.95;11.77;;;;;;;8.91;39.45;101765.78;5184691;28;20517;-50
2022/03/11 01:50:57;;;;;;;19.02;11.52;;;;;;;8.86;39.45;101748.66;5186421;28;20472;-50
2022/03/11 01:53:29;;;;;;;17.27;10.88;;;;;;;8.91;39.55;101759.69;5184867;28;20484;-53
2022/03/11 01:56:02;;;;;;;17.35;10.68;;;;;;;8.89;39.36;101756.34;5184014;28;20924;-53
2022/03/11 01:58:35;;;;;;;17.40;10.95;;;;;;;8.72;39.49;101740.00;5183915;28;20410;-51
2022/03/11 02:01:09;;;;;;;19.10;11.38;;;;;;;8.82;39.73;101747.19;5185195;28;20426;-49
2022/03/11 02:03:42;;;;;;;15.95;10.23;;;;;;;8.81;39.67;101746.38;5185748;28;20473;-49
2022/03/11 02:06:17;;;;;;;16.00;11.60;;;;;;;8.83;39.79;101748.91;5186788;28;20419;-50
2022/03/11 02:08:49;;;;;;;20.00;11.98;;;;;;;8.81;39.65;101742.91;5183594;28;20481;-49
2022/03/11 02:11:22;;;;;;;17.80;10.88;;;;;;;8.73;39.65;101740.81;5186868;28;20910;-52
2022/03/11 02:13:57;;;;;;;17.23;11.27;;;;;;;8.75;39.92;101737.13;5187902;28;20851;-49
2022/03/11 02:16:32;;;;;;;17.60;10.32;;;;;;;8.71;39.75;101727.78;5181781;28;20399;-49
2022/03/11 02:19:05;;;;;;;22.38;11.55;;;;;;;8.66;40.01;101729.91;5187071;28;20889;-52
2022/03/11 02:21:44;;;;;;;16.42;10.55;;;;;;;8.66;40.04;101729.09;5187430;28;20438;-51
2022/03/11 02:24:18;;;;;;;15.27;10.70;;;;;;;8.60;40.05;101735.66;5186987;28;20422;-50
2022/03/11 02:26:50;;;;;;;18.42;10.73;;;;;;;8.57;40.07;101722.72;5185598;28;20438;-49
2022/03/11 02:29:23;;;;;;;19.90;11.63;;;;;;;8.46;40.12;101712.16;5185573;28;20422;-49
2022/03/11 02:31:55;;;;;;;18.13;11.50;;;;;;;8.50;40.28;101710.97;5185153;28;20446;-50
2022/03/11 02:34:28;;;;;;;17.85;10.50;;;;;;;8.48;40.34;101710.25;5186316;28;20557;-51
2022/03/11 02:37:00;;;;;;;18.80;10.95;;;;;;;8.42;40.43;101702.78;5181775;28;20518;-55
2022/03/11 02:39:34;;;;;;;16.38;11.15;;;;;;;8.37;40.26;101697.84;5185155;28;20835;-50
2022/03/11 02:42:07;;;;;;;18.88;11.48;;;;;;;8.42;40.42;101718.59;5182777;28;20443;-49
2022/03/11 02:44:41;;;;;;;18.45;11.35;;;;;;;8.39;40.09;101703.84;5186269;28;20430;-51
2022/03/11 02:47:14;;;;;;;18.40;10.15;;;;;;;8.38;40.23;101698.69;5186089;28;20403;-50
2022/03/11 02:49:46;;;;;;;18.60;11.25;;;;;;;8.22;40.45;101684.03;5184658;28;20895;-52
2022/03/11 02:52:19;;;;;;;17.47;12.10;;;;;;;8.31;40.40;101699.16;5166260;28;20893;-51
2022/03/11 02:54:53;;;;;;;28.67;11.75;;;;;;;8.24;40.37;101700.56;5161485;28;20830;-51
2022/03/11 02:57:26;;;;;;;17.42;11.52;;;;;;;8.24;40.40;101686.56;5163158;28;20436;-51
2022/03/11 02:59:58;;;;;;;17.00;11.17;;;;;;;8.13;40.65;101684.72;5162992;28;20979;-51
2022/03/11 03:02:31;;;;;;;21.88;12.32;;;;;;;8.16;40.45;101688.91;5157609;28;20419;-50
2022/03/11 03:05:05;;;;;;;17.93;11.83;;;;;;;8.17;40.46;101686.16;5162585;28;20512;-51
2022/03/11 03:07:41;;;;;;;22.13;12.23;;;;;;;7.96;40.40;101661.44;5164213;28;20417;-50
2022/03/11 03:10:16;;;;;;;20.00;11.68;;;;;;;7.99;40.62;101671.72;5160420;28;20433;-47
2022/03/11 03:12:48;;;;;;;17.75;12.52;;;;;;;8.10;40.37;101674.41;5151966;28;20407;-52
2022/03/11 03:15:21;;;;;;;16.27;11.27;;;;;;;8.10;40.47;101674.41;5165065;28;20445;-49
2022/03/11 03:17:53;;;;;;;17.30;12.50;;;;;;;7.96;40.50;101677.22;5164285;28;20528;-56
2022/03/11 03:20:26;;;;;;;18.97;11.80;;;;;;;8.04;40.84;101675.72;5162383;28;20608;-46
2022/03/11 03:22:59;;;;;;;17.80;12.13;;;;;;;8.00;41.01;101668.16;5161052;28;20524;-49
2022/03/11 03:25:32;;;;;;;16.43;12.00;;;;;;;7.35;40.85;101569.47;5160458;28;20506;-51
2022/03/11 03:28:05;;;;;;;16.63;12.13;;;;;;;7.97;40.76;101669.22;5166777;28;20428;-51
2022/03/11 03:30:38;;;;;;;18.75;11.77;;;;;;;8.00;40.87;101681.31;5164781;28;20436;-54
2022/03/11 03:33:10;;;;;;;18.90;12.75;;;;;;;7.92;40.85;101665.25;5164486;28;20831;-48
2022/03/11 03:35:43;;;;;;;18.67;11.65;;;;;;;7.96;40.71;101671.94;5164889;28;20436;-49
2022/03/11 03:38:16;;;;;;;18.65;12.10;;;;;;;7.96;40.89;101672.81;5161031;28;20435;-50
2022/03/11 03:40:50;;;;;;;19.55;12.30;;;;;;;7.91;40.93;101663.59;5169354;28;20427;-50
2022/03/11 03:43:22;;;;;;;20.02;12.02;;;;;;;7.92;40.78;101670.50;5162968;28;20893;-52
2022/03/11 03:45:55;;;;;;;15.75;10.45;;;;;;;7.91;41.09;101674.09;5161809;28;20955;-53
2022/03/11 03:48:27;;;;;;;16.85;12.15;;;;;;;7.88;40.95;101674.31;5164006;28;20444;-49
2022/03/11 03:50:59;;;;;;;19.33;12.07;;;;;;;7.83;40.96;101665.00;5160069;28;20440;-52
2022/03/11 03:53:32;;;;;;;17.87;12.97;;;;;;;7.82;41.05;101665.91;5163498;28;20530;-50
2022/03/11 03:56:06;;;;;;;16.73;11.77;;;;;;;7.81;41.25;101669.50;5165293;28;20911;-51
2022/03/11 03:58:39;;;;;;;16.75;11.55;;;;;;;7.80;41.04;101667.84;5161303;28;20523;-52
2022/03/11 04:01:11;;;;;;;20.05;12.75;;;;;;;7.78;41.35;101668.91;5160861;28;20421;-51
2022/03/11 04:03:44;;;;;;;17.60;12.20;;;;;;;7.75;41.51;101664.69;5163015;28;20571;-48
2022/03/11 04:06:16;;;;;;;18.48;12.65;;;;;;;7.74;41.18;101662.16;5152674;28;20772;-51
2022/03/11 04:08:49;;;;;;;20.77;12.10;;;;;;;7.19;41.58;101576.78;5159862;28;20904;-55
2022/03/11 04:11:23;;;;;;;18.88;12.00;;;;;;;7.69;41.43;101654.63;5164648;28;20452;-48
2022/03/11 04:13:55;;;;;;;17.20;11.43;;;;;;;7.70;41.45;101655.44;5162841;28;20472;-50
2022/03/11 04:16:29;;;;;;;18.80;12.48;;;;;;;7.15;41.57;101607.66;5162875;28;20909;-52
2022/03/11 04:19:02;;;;;;;20.13;12.27;;;;;;;7.67;41.35;101648.63;5158450;28;20895;-56
2022/03/11 04:21:34;;;;;;;17.90;12.68;;;;;;;7.68;41.43;101652.94;5163493;28;20437;-53
2022/03/11 04:24:13;;;;;;;19.40;11.80;;;;;;;7.66;41.39;101649.59;5161820;28;20479;-56
2022/03/11 04:26:47;;;;;;;19.40;13.20;;;;;;;7.59;41.62;101641.31;5163792;28;21061;-50
2022/03/11 04:29:19;;;;;;;18.73;12.52;;;;;;;7.57;41.49;101642.34;5164001;28;23312;-49
2022/03/11 04:31:52;;;;;;;19.60;12.50;;;;;;;7.60;41.73;101639.50;5161172;28;20404;-49
2022/03/11 04:34:25;;;;;;;18.05;11.52;;;;;;;7.58;41.53;101636.13;5162131;28;20479;-51
2022/03/11 04:36:58;;;;;;;20.40;11.93;;;;;;;7.56;41.60;101632.81;5171415;28;20425;-50
2022/03/11 04:39:30;;;;;;;20.30;13.18;;;;;;;7.54;41.74;101632.06;5159739;28;20804;-52
2022/03/11 04:42:06;;;;;;;20.20;12.40;;;;;;;7.50;41.97;101620.94;5165778;28;20593;-50
2022/03/11 04:44:39;;;;;;;17.05;12.48;;;;;;;7.48;41.77;101620.19;5160404;28;20491;-54
2022/03/11 04:47:11;;;;;;;19.52;13.18;;;;;;;7.23;42.09;101579.09;5163441;28;20506;-47
2022/03/11 04:49:43;;;;;;;18.98;13.05;;;;;;;7.43;42.02;101630.19;5164095;28;20468;-46
2022/03/11 04:52:16;;;;;;;16.42;12.10;;;;;;;7.12;41.91;101568.50;5164317;28;20502;-49
2022/03/11 04:54:49;;;;;;;18.70;12.57;;;;;;;7.39;41.90;101632.19;5163557;28;20499;-57
2022/03/11 04:57:23;;;;;;;19.75;12.07;;;;;;;7.36;41.97;101629.78;5164959;28;20426;-51
2022/03/11 04:59:55;;;;;;;18.27;12.63;;;;;;;7.33;41.87;101619.50;5167651;28;20436;-47
2022/03/11 05:02:28;;;;;;;20.75;13.50;;;;;;;7.31;41.95;101623.22;5166856;28;20758;-52
2022/03/11 05:05:05;;;;;;;18.85;12.35;;;;;;;6.91;41.75;101574.34;5161976;28;20543;-55
2022/03/11 05:07:38;;;;;;;18.70;12.65;;;;;;;7.25;42.09;101613.13;5164316;28;20526;-50
2022/03/11 05:10:15;;;;;;;17.17;12.63;;;;;;;7.22;42.08;101619.44;5167315;28;21000;-50
2022/03/11 05:12:48;;;;;;;18.30;12.55;;;;;;;7.21;42.05;101620.38;5166651;28;20420;-49
2022/03/11 05:15:24;;;;;;;19.63;12.85;;;;;;;7.20;42.05;101616.06;5164585;28;20444;-58
2022/03/11 05:17:57;;;;;;;20.95;12.85;;;;;;;7.15;42.12;101610.31;5167860;28;20769;-47
2022/03/11 05:20:29;;;;;;;18.60;12.53;;;;;;;7.12;42.38;101602.63;5169551;28;20423;-49
2022/03/11 05:23:02;;;;;;;18.95;12.25;;;;;;;7.13;42.40;101613.06;5165694;28;20893;-47
2022/03/11 05:25:35;;;;;;;21.60;12.68;;;;;;;7.01;42.27;101586.81;5154858;28;20409;-48
2022/03/11 05:28:09;;;;;;;23.80;13.88;;;;;;;7.10;42.46;101605.38;5168411;28;20421;-49
2022/03/11 05:30:41;;;;;;;15.93;12.20;;;;;;;7.09;42.39;101603.72;5167183;28;20437;-52
2022/03/11 05:33:14;;;;;;;16.02;11.88;;;;;;;7.06;42.65;101603.94;5170127;28;20424;-53
2022/03/11 05:35:46;;;;;;;17.65;13.20;;;;;;;7.04;42.79;101599.72;5169351;28;20408;-56
2022/03/11 05:38:20;;;;;;;15.43;11.80;;;;;;;6.97;42.30;101593.22;5167391;28;20440;-50
2022/03/11 05:40:52;;;;;;;16.90;12.37;;;;;;;6.96;42.56;101592.38;5168873;28;20972;-48
2022/03/11 05:43:26;;;;;;;20.25;12.63;;;;;;;7.02;42.49;101596.38;5168035;28;20424;-47
2022/03/11 05:45:59;;;;;;;19.58;11.32;;;;;;;7.01;42.85;101594.69;5169169;28;20413;-49
2022/03/11 05:48:32;;;;;;;16.35;11.98;;;;;;;7.02;42.72;101633.13;5165103;28;20888;-50
2022/03/11 05:51:04;;;;;;;26.90;13.43;;;;;;;6.94;42.60;101583.78;5168087;28;20465;-47
2022/03/11 05:53:37;;;;;;;19.85;12.27;;;;;;;6.94;42.75;101589.03;5168621;28;20504;-49
2022/03/11 05:56:09;;;;;;;17.90;12.50;;;;;;;6.98;43.10;101589.66;5168097;28;20424;-50
2022/03/11 05:58:43;;;;;;;17.27;11.55;;;;;;;6.97;43.10;101591.44;5166661;28;20440;-50
2022/03/11 06:01:16;;;;;;;17.67;12.18;;;;;;;6.91;42.70;101579.59;5164527;28;20437;-50
2022/03/11 06:03:48;;;;;;;20.57;13.87;;;;;;;6.96;43.24;101586.28;5167766;28;20832;-51
2022/03/11 06:06:21;;;;;;;20.05;13.02;;;;;;;6.66;43.17;101533.22;5168615;28;20409;-48
2022/03/11 06:08:54;;;;;;;21.75;12.77;;;;;;;6.97;43.23;101587.97;5167476;28;20497;-46
2022/03/11 06:11:27;;;;;;;22.52;12.40;;;;;;;6.97;43.16;101574.81;5168902;28;20468;-50
2022/03/11 06:14:01;;;;;;;17.10;12.05;;;;;;;6.29;43.00;101465.84;5164615;28;20420;-46
2022/03/11 06:16:33;;;;;;;16.33;11.52;;;;;;;6.99;43.06;101580.81;5169460;28;20503;-48
2022/03/11 06:19:06;;;;;;;19.52;12.18;;;;;;;7.00;42.97;101571.97;5168519;28;20428;-47
2022/03/11 06:21:38;;;;;;;18.88;12.45;;;;;;;7.01;43.18;101578.94;5168659;28;20428;-51
2022/03/11 06:24:11;;;;;;;19.27;12.88;;;;;;;6.91;43.07;101576.97;5166268;28;20479;-50
2022/03/11 06:26:44;;;;;;;18.20;11.68;;;;;;;7.02;43.36;101589.31;5176765;28;20461;-51
2022/03/11 06:29:18;;;;;;;18.80;12.18;;;;;;;6.95;43.30;101590.72;5158831;28;20964;-51
2022/03/11 06:31:50;;;;;;;15.95;10.70;;;;;;;7.04;43.34;101583.97;5178165;28;20490;-48
2022/03/11 06:34:24;;;;;;;21.20;13.13;;;;;;;7.05;43.42;101581.22;5171149;28;20433;-49
2022/03/11 06:36:56;;;;;;;21.88;12.23;;;;;;;7.07;43.47;101592.47;5176025;28;20423;-51
2022/03/11 06:39:29;;;;;;;20.38;14.05;;;;;;;7.12;43.25;101592.13;5176186;28;20419;-51
2022/03/11 06:42:02;;;;;;;25.42;14.25;;;;;;;7.14;43.10;101592.88;5178960;28;20492;-55
2022/03/11 06:44:36;;;;;;;23.92;13.70;;;;;;;7.15;43.21;101592.78;5167637;28;20846;-50
2022/03/11 06:47:09;;;;;;;25.65;13.77;;;;;;;7.17;43.06;101579.53;5162400;28;20423;-52
2022/03/11 06:49:41;;;;;;;21.77;13.88;;;;;;;7.17;43.33;101574.25;5167105;28;20440;-53
2022/03/11 06:52:14;;;;;;;22.85;12.98;;;;;;;7.22;43.15;101587.09;5163705;28;20892;-49
2022/03/11 06:54:47;;;;;;;19.08;12.63;;;;;;;7.21;43.09;101580.97;5166724;28;20801;-49
2022/03/11 06:57:20;;;;;;;19.52;12.20;;;;;;;6.92;43.20;101548.91;5166874;28;20427;-50
2022/03/11 06:59:54;;;;;;;17.90;12.18;;;;;;;7.27;43.16;101574.44;5186472;28;20890;-50
2022/03/11 07:02:27;;;;;;;18.13;12.77;;;;;;;7.32;43.43;101578.41;5173064;28;20421;-51
2022/03/11 07:04:59;;;;;;;16.33;10.98;;;;;;;7.32;43.29;101569.69;5167762;28;20471;-49
2022/03/11 07:07:33;;;;;;;20.38;12.25;;;;;;;7.42;43.13;101572.50;5162546;28;20804;-48
2022/03/11 07:10:09;;;;;;;22.90;11.68;;;;;;;7.46;43.38;101573.94;5168311;28;20889;-50
2022/03/11 07:12:42;;;;;;;19.33;11.90;;;;;;;7.56;43.16;101569.72;5166470;28;20413;-47
2022/03/11 07:15:16;;;;;;;16.65;11.55;;;;;;;7.70;42.98;101564.25;5164545;28;20432;-48
2022/03/11 07:17:49;;;;;;;16.83;11.80;;;;;;;7.80;42.51;101462.72;5166108;28;20413;-49
2022/03/11 07:20:22;;;;;;;19.85;11.43;;;;;;;9.86;41.26;101552.59;5161949;28;20434;-49
2022/03/11 07:22:54;;;;;;;18.60;10.57;;;;;;;11.37;39.65;101561.66;5158072;28;20435;-52
2022/03/11 07:25:27;;;;;;;19.50;11.23;;;;;;;12.40;38.90;101558.38;5162116;28;20420;-51
2022/03/11 07:28:00;;;;;;;16.40;9.50;;;;;;;13.18;38.19;101544.75;5162679;28;20444;-51
2022/03/11 07:30:34;;;;;;;16.13;9.93;;;;;;;13.99;37.31;101543.84;5156496;28;20404;-52
2022/03/11 07:33:09;;;;;;;20.65;10.40;;;;;;;14.78;36.63;101544.69;5167311;28;20424;-51
2022/03/11 07:35:42;;;;;;;17.17;10.07;;;;;;;15.60;35.84;101541.19;5164810;28;20499;-51
2022/03/11 07:38:14;;;;;;;16.48;9.95;;;;;;;15.95;35.50;101531.25;5182744;28;20479;-52
2022/03/11 07:40:49;;;;;;;15.77;9.68;;;;;;;16.17;35.03;101515.59;5167313;28;20424;-54
2022/03/11 07:43:22;;;;;;;15.82;10.40;;;;;;;16.60;34.65;101531.09;5165879;28;20421;-52
2022/03/11 07:45:56;;;;;;;14.93;10.57;;;;;;;16.76;34.57;101535.56;5163191;28;20504;-52
2022/03/11 07:48:28;;;;;;;15.65;10.35;;;;;;;16.79;34.25;101513.06;5165475;28;20828;-49
2022/03/11 07:51:02;;;;;;;15.13;9.53;;;;;;;17.18;33.84;101528.19;5163229;28;20415;-49
2022/03/11 07:53:34;;;;;;;17.45;10.13;;;;;;;17.55;33.51;101521.25;5161500;28;20416;-50
2022/03/11 07:56:07;;;;;;;16.42;10.07;;;;;;;17.71;33.44;101515.75;5165756;28;20514;-49
2022/03/11 07:58:41;;;;;;;11.80;9.63;;;;;;;18.14;32.92;101516.06;5164429;28;20861;-48
2022/03/11 08:01:16;;;;;;;18.35;10.40;;;;;;;18.50;32.46;101520.69;5166522;28;20421;-50
2022/03/11 08:03:48;;;;;;;16.98;10.05;;;;;;;18.81;32.05;101518.66;5167012;28;20888;-48
2022/03/11 08:06:21;;;;;;;17.83;10.82;;;;;;;19.00;31.75;101514.53;5166284;28;20412;-53
2022/03/11 08:08:53;;;;;;;19.08;9.50;;;;;;;18.98;31.69;101524.59;5166035;28;20437;-50
2022/03/11 08:11:26;;;;;;;15.10;10.07;;;;;;;19.08;31.47;101518.97;5166813;28;20405;-46
2022/03/11 08:13:59;;;;;;;18.93;11.00;;;;;;;19.51;31.34;101513.59;5167114;28;20895;-47
2022/03/11 08:16:33;;;;;;;15.93;10.13;;;;;;;19.26;30.75;101422.13;5163604;28;20411;-54
2022/03/11 08:19:06;;;;;;;16.35;9.65;;;;;;;19.75;30.65;101504.38;5167037;28;20416;-53
2022/03/11 08:21:40;;;;;;;14.57;9.85;;;;;;;19.65;30.63;101507.38;5181638;28;20427;-50
2022/03/11 08:24:13;;;;;;;15.52;10.43;;;;;;;19.42;30.52;101485.28;5165795;28;20428;-52
2022/03/11 08:26:47;;;;;;;19.45;10.23;;;;;;;19.83;30.23;101490.00;5165708;28;20424;-48
2022/03/11 08:29:20;;;;;;;18.73;10.77;;;;;;;20.24;29.89;101503.47;5166236;28;20420;-51
2022/03/11 08:31:54;;;;;;;15.85;10.40;;;;;;;20.62;29.39;101501.22;5166920;28;20820;-51
2022/03/11 08:34:27;;;;;;;14.55;10.13;;;;;;;21.00;29.15;101498.06;5169648;28;20453;-52
2022/03/11 08:37:00;;;;;;;16.58;10.90;;;;;;;21.04;29.00;101493.94;5167562;28;20458;-51
2022/03/11 08:39:32;;;;;;;17.83;10.15;;;;;;;20.79;29.14;101479.41;5165619;28;20416;-51
2022/03/11 08:42:05;;;;;;;19.13;10.35;;;;;;;21.11;28.87;101472.47;5170480;28;20416;-48
2022/03/11 08:44:38;;;;;;;17.77;9.93;;;;;;;21.36;28.47;101475.41;5168800;28;20417;-50
2022/03/11 08:47:12;;;;;;;15.00;9.82;;;;;;;21.32;28.40;101460.72;5168030;28;20423;-53
2022/03/11 08:49:45;;;;;;;17.30;10.90;;;;;;;21.10;28.55;101477.00;5170609;28;20471;-51
2022/03/11 08:52:17;;;;;;;16.25;10.32;;;;;;;21.00;28.63;101471.22;5167958;28;20553;-52
2022/03/11 08:54:50;;;;;;;18.20;10.70;;;;;;;21.05;28.28;101479.47;5170178;28;27923;-48
2022/03/11 08:57:22;;;;;;;20.23;10.48;;;;;;;21.18;28.31;101465.22;5170686;28;20467;-53
2022/03/11 08:59:55;;;;;;;17.85;10.43;;;;;;;21.48;28.12;101467.56;5170887;28;20502;-49
2022/03/11 09:02:29;;;;;;;16.70;9.90;;;;;;;21.50;28.05;101465.50;5170443;28;20504;-49
2022/03/11 09:05:01;;;;;;;14.52;9.90;;;;;;;21.31;28.20;101461.75;5168151;28;20444;-50
2022/03/11 09:07:34;;;;;;;15.68;10.25;;;;;;;21.35;28.40;101458.47;5170753;28;20452;-50
2022/03/11 09:10:10;;;;;;;16.85;10.07;;;;;;;21.05;28.60;101441.88;5170243;28;20452;-48
2022/03/11 09:12:43;;;;;;;18.17;10.30;;;;;;;20.77;28.60;101451.94;5170689;28;20425;-50
2022/03/11 09:15:16;;;;;;;16.25;10.32;;;;;;;20.35;29.38;101448.47;5171455;28;20444;-52
2022/03/11 09:17:50;;;;;;;15.27;10.10;;;;;;;19.90;29.63;101451.50;5167383;28;20421;-54
2022/03/11 09:20:24;;;;;;;19.20;10.50;;;;;;;19.17;30.33;101396.50;5169804;28;20793;-50
2022/03/11 09:22:57;;;;;;;19.75;10.02;;;;;;;19.21;30.60;101443.31;5170264;28;20511;-49
2022/03/11 09:25:29;;;;;;;18.13;10.43;;;;;;;18.67;30.80;101409.75;5168028;28;20440;-52
2022/03/11 09:28:02;;;;;;;15.95;10.35;;;;;;;18.53;31.03;101434.72;5167164;28;20409;-51
2022/03/11 09:30:35;;;;;;;23.90;10.60;;;;;;;18.32;31.37;101447.00;5164861;28;21585;-54
2022/03/11 09:33:09;;;;;;;12.90;9.40;;;;;;;17.98;31.62;101435.03;5172026;28;20863;-49
2022/03/11 09:35:41;;;;;;;17.03;9.93;;;;;;;17.78;31.93;101412.56;5165620;28;20510;-49
2022/03/11 09:38:14;;;;;;;16.10;10.00;;;;;;;17.42;32.36;101426.53;5163491;28;20447;-49
2022/03/11 09:40:47;;;;;;;17.52;10.52;;;;;;;17.07;32.62;101428.00;5165151;28;20887;-51
2022/03/11 09:43:21;;;;;;;15.25;10.40;;;;;;;16.86;32.79;101431.31;5166251;28;20927;-52
2022/03/11 09:45:54;;;;;;;18.47;10.80;;;;;;;16.68;32.86;101430.72;5168066;28;20969;-49
2022/03/11 09:48:29;;;;;;;14.37;9.27;;;;;;;16.39;33.04;101410.88;5167858;28;20484;-48
2022/03/11 09:51:02;;;;;;;17.57;10.33;;;;;;;16.19;33.27;101422.94;5164503;28;20546;-54
2022/03/11 09:53:35;;;;;;;17.77;10.57;;;;;;;15.96;33.20;101410.38;5166857;28;20489;-53
2022/03/11 09:56:08;;;;;;;18.92;10.38;;;;;;;15.65;33.48;101408.41;5165426;28;20540;-51
2022/03/11 09:58:40;;;;;;;16.95;10.65;;;;;;;15.32;33.63;101414.75;5163577;28;20428;-48
2022/03/11 10:01:15;;;;;;;17.83;11.43;;;;;;;15.13;33.66;101399.97;5167394;28;20436;-49
2022/03/11 10:03:49;;;;;;;21.33;11.55;;;;;;;15.13;33.55;101402.63;5168486;28;20436;-50
2022/03/11 10:06:38;;;;;;;20.88;11.27;;;;;;;15.06;33.83;101397.13;5158175;28;20421;-47
2022/03/11 10:09:32;;;;;;;17.65;11.13;;;;;;;15.07;33.58;101401.44;5165788;28;20844;-51
2022/03/11 10:12:07;;;;;;;19.67;11.48;;;;;;;15.02;33.58;101398.47;5165970;28;20428;-56
2022/03/11 10:14:40;;;;;;;21.52;11.57;;;;;;;14.71;33.60;101348.59;5168975;28;20801;-51
2022/03/11 10:17:21;;;;;;;19.00;11.10;;;;;;;14.96;33.67;101388.50;5166794;28;20829;-52
2022/03/11 10:20:02;;;;;;;16.85;11.25;;;;;;;14.90;33.78;101395.31;5165056;28;20456;-52
2022/03/11 10:22:36;;;;;;;17.50;10.90;;;;;;;14.95;33.64;101408.09;5164948;28;20424;-51
2022/03/11 10:25:16;;;;;;;18.15;10.27;;;;;;;14.89;33.77;101404.25;5167977;28;20417;-49
2022/03/11 10:28:00;;;;;;;21.73;10.95;;;;;;;14.86;33.78;101409.91;5167516;28;20877;-55
2022/03/11 10:30:35;;;;;;;21.85;11.05;;;;;;;14.88;33.84;101391.13;5166344;28;20803;-51
2022/03/11 10:33:10;;;;;;;20.98;10.95;;;;;;;14.86;33.94;101387.78;5162935;28;20425;-50
2022/03/11 10:35:48;;;;;;;20.88;11.32;;;;;;;14.87;34.14;101368.22;5168196;28;20463;-52
2022/03/11 10:38:26;;;;;;;19.65;10.60;;;;;;;14.83;34.14;101356.22;5166988;28;20417;-48
2022/03/11 10:41:00;;;;;;;18.75;10.57;;;;;;;14.85;34.28;101367.53;5165757;28;20420;-52
2022/03/11 10:43:33;;;;;;;18.55;10.85;;;;;;;14.89;34.23;101364.38;5160285;28;20500;-51
2022/03/11 10:46:09;;;;;;;16.25;10.35;;;;;;;14.92;34.27;101355.22;5165460;28;20441;-52
2022/03/11 10:48:47;;;;;;;15.57;10.63;;;;;;;14.93;34.33;101363.06;5167448;28;20497;-56
2022/03/11 10:51:30;;;;;;;16.35;10.48;;;;;;;14.81;34.27;101326.31;5162236;28;20431;-55
2022/03/11 10:54:05;;;;;;;19.10;11.00;;;;;;;14.95;34.48;101349.56;5162313;28;20462;-47
2022/03/11 10:56:40;;;;;;;16.67;11.20;;;;;;;14.93;34.42;101335.63;5163727;28;20539;-56
2022/03/11 10:59:23;;;;;;;18.55;11.40;;;;;;;15.10;34.35;101342.59;5161048;28;20781;-54
2022/03/11 11:01:58;;;;;;;15.95;10.75;;;;;;;15.27;34.84;101351.41;5164262;28;20479;-48
2022/03/11 11:04:30;;;;;;;17.40;10.52;;;;;;;15.41;34.21;101352.53;5163929;28;20417;-49
2022/03/11 11:07:07;;;;;;;19.27;11.32;;;;;;;15.45;34.22;101337.88;5160706;28;20459;-55
2022/03/11 11:09:39;;;;;;;21.02;12.00;;;;;;;15.39;34.07;101311.94;5163075;28;20851;-54
2022/03/11 11:12:12;;;;;;;21.27;11.27;;;;;;;15.72;34.23;101346.53;5163987;28;20425;-48
2022/03/11 11:14:46;;;;;;;19.33;10.75;;;;;;;15.76;34.19;101343.31;5163698;28;20900;-49
2022/03/11 11:17:19;;;;;;;18.02;10.18;;;;;;;15.75;34.27;101335.53;5163478;28;20445;-54
2022/03/11 11:19:56;;;;;;;17.65;10.43;;;;;;;15.77;34.22;101330.88;5163728;28;20771;-52
2022/03/11 11:22:31;;;;;;;22.48;11.65;;;;;;;15.78;34.10;101329.84;5164589;28;20917;-59
2022/03/11 11:25:05;;;;;;;21.20;11.43;;;;;;;15.80;34.21;101317.22;5160779;28;20484;-52
2022/03/11 11:27:39;;;;;;;23.02;12.88;;;;;;;15.84;34.19;101322.00;5163750;28;20470;-53
2022/03/11 11:30:13;;;;;;;19.02;12.40;;;;;;;15.89;34.24;101314.34;5164048;28;20865;-54
2022/03/11 11:32:46;;;;;;;23.30;13.18;;;;;;;15.93;34.26;101306.81;5163265;28;20428;-53
2022/03/11 11:35:29;;;;;;;23.20;12.75;;;;;;;16.00;34.09;101306.97;5162261;28;20437;-56
2022/03/11 11:38:07;;;;;;;19.25;11.00;;;;;;;16.07;34.14;101313.25;5162005;28;20432;-48
2022/03/11 11:40:47;;;;;;;18.40;11.48;;;;;;;16.07;34.19;101305.25;5163874;28;20900;-53
2022/03/11 11:43:29;;;;;;;21.27;12.05;;;;;;;16.02;34.33;101294.31;5160278;28;20436;-50